Time;durP1;ratioP1;P1;durP2;ratioP2;P2;SDS_P1;SDS_P2;PMS_P1;PMS_P2;Temp;Humidity;BMP_temperature;BMP_pressure;BME280_temperature;BME280_humidity;BME280_pressure;Samples;Min_cycle;Max_cycle;Signal;HPM_P1;HPM_P2
2023/05/15 17:02:43;;;;;;;6.07;3.70;;;15.90;99.90;;;;;;5068295;28;20361;-65
2023/05/15 17:05:10;;;;;;;5.93;3.33;;;15.70;99.90;;;;;;5067187;28;20087;-66
2023/05/15 17:07:37;;;;;;;7.38;3.25;;;15.60;99.90;;;;;;5067648;28;20481;-66
2023/05/15 17:10:04;;;;;;;5.82;3.22;;;15.60;99.90;;;;;;5068025;28;20107;-67
2023/05/15 17:12:29;;;;;;;3.88;2.72;;;15.50;99.90;;;;;;5067077;28;20484;-63
2023/05/15 17:14:55;;;;;;;5.07;2.72;;;15.50;99.90;;;;;;5066952;28;20039;-67
2023/05/15 17:17:22;;;;;;;7.13;3.63;;;15.50;99.90;;;;;;5068437;28;20028;-66
2023/05/15 17:19:48;;;;;;;7.45;2.90;;;15.50;99.90;;;;;;5054633;28;20022;-70
2023/05/15 17:22:13;;;;;;;5.22;2.55;;;15.40;99.90;;;;;;5049231;28;20477;-65
2023/05/15 17:24:39;;;;;;;7.00;3.00;;;15.40;99.90;;;;;;5048889;28;20539;-68
2023/05/15 17:27:05;;;;;;;6.93;2.92;;;15.40;99.90;;;;;;5048129;28;20025;-69
2023/05/15 17:29:30;;;;;;;5.63;2.50;;;15.40;99.90;;;;;;5048461;28;20107;-65
2023/05/15 17:31:56;;;;;;;5.07;2.78;;;15.50;99.90;;;;;;5047273;28;20064;-63
2023/05/15 17:34:21;;;;;;;4.35;2.30;;;15.50;99.90;;;;;;5048050;28;20021;-65
2023/05/15 17:36:47;;;;;;;4.43;2.40;;;15.40;99.90;;;;;;5056195;28;20035;-67
2023/05/15 17:39:13;;;;;;;5.82;2.70;;;15.40;99.90;;;;;;5051203;28;20083;-67
2023/05/15 17:41:39;;;;;;;3.83;2.65;;;15.30;99.90;;;;;;5047066;28;20584;-70
2023/05/15 17:44:04;;;;;;;3.47;2.13;;;15.30;99.90;;;;;;5047998;28;20064;-65
2023/05/15 17:46:31;;;;;;;4.38;2.38;;;15.20;99.90;;;;;;5047888;28;20029;-65
2023/05/15 17:48:57;;;;;;;4.90;2.45;;;15.20;99.90;;;;;;5046232;28;20068;-66
2023/05/15 17:51:23;;;;;;;2.92;2.30;;;15.30;99.90;;;;;;5046844;28;20025;-65
2023/05/15 17:53:48;;;;;;;4.38;2.63;;;15.20;99.90;;;;;;5048408;28;20483;-65
2023/05/15 17:56:14;;;;;;;4.88;2.70;;;15.20;99.90;;;;;;5055200;28;20127;-66
2023/05/15 17:58:39;;;;;;;5.10;2.40;;;15.20;99.90;;;;;;5066008;28;20016;-65
2023/05/15 18:01:05;;;;;;;4.25;2.30;;;15.20;99.90;;;;;;5064083;28;20048;-67
2023/05/15 18:03:32;;;;;;;4.07;2.47;;;15.10;99.90;;;;;;5066881;28;20025;-66
2023/05/15 18:05:58;;;;;;;4.32;2.42;;;15.10;99.90;;;;;;5068004;28;20055;-66
2023/05/15 18:08:24;;;;;;;4.15;2.33;;;15.10;99.90;;;;;;5078499;28;20060;-65
2023/05/15 18:10:50;;;;;;;5.25;2.60;;;15.00;99.90;;;;;;5069252;28;20087;-66
2023/05/15 18:13:16;;;;;;;5.75;2.10;;;15.00;99.90;;;;;;5054284;28;20374;-66
2023/05/15 18:15:41;;;;;;;4.63;2.70;;;15.00;99.90;;;;;;5073454;28;20076;-65
2023/05/15 18:18:07;;;;;;;5.65;2.40;;;15.00;99.90;;;;;;5047848;28;20059;-65
2023/05/15 18:20:33;;;;;;;4.03;2.38;;;15.00;99.90;;;;;;5053342;28;20029;-66
2023/05/15 18:22:58;;;;;;;6.03;2.53;;;15.00;99.90;;;;;;5041294;28;20085;-65
2023/05/15 18:25:25;;;;;;;5.15;2.40;;;15.00;99.90;;;;;;5056851;28;20017;-66
2023/05/15 18:27:51;;;;;;;3.97;2.63;;;14.90;99.90;;;;;;5065330;28;20023;-65
2023/05/15 18:30:16;;;;;;;5.70;2.80;;;14.80;99.90;;;;;;5073125;28;20416;-66
2023/05/15 18:32:42;;;;;;;4.78;3.15;;;14.80;99.90;;;;;;5067504;28;20025;-66
2023/05/15 18:35:08;;;;;;;6.25;2.70;;;14.70;99.90;;;;;;5037854;28;20112;-65
2023/05/15 18:37:34;;;;;;;4.53;2.50;;;14.70;99.90;;;;;;5053135;28;20096;-66
2023/05/15 18:39:59;;;;;;;5.07;2.40;;;14.70;99.90;;;;;;5070436;28;20453;-66
2023/05/15 18:42:27;;;;;;;4.05;2.35;;;14.70;99.90;;;;;;5073639;28;20567;-68
2023/05/15 18:44:53;;;;;;;4.78;2.50;;;14.60;99.90;;;;;;5072051;28;20036;-65
2023/05/15 18:47:18;;;;;;;3.95;2.72;;;14.60;99.90;;;;;;5073547;28;20028;-65
2023/05/15 18:49:44;;;;;;;5.93;2.90;;;14.60;99.90;;;;;;5054311;28;20104;-66
2023/05/15 18:52:10;;;;;;;5.28;2.50;;;14.50;99.90;;;;;;5035677;28;20038;-67
2023/05/15 18:54:37;;;;;;;3.13;2.15;;;14.40;99.90;;;;;;5070410;28;20431;-65
